createdAt,value
2022-12-31T08:08:33.675Z,46.53
2022-12-31T08:09:40.691Z,46.53
2022-12-31T08:11:07.070Z,46.69
2022-12-31T08:12:11.272Z,47.13
2022-12-31T08:13:17.428Z,47.56
2022-12-31T08:14:21.798Z,46.31
2022-12-31T08:15:30.290Z,47.13
2022-12-31T08:16:32.103Z,46.81
2022-12-31T08:17:36.225Z,47.25
2022-12-31T08:18:40.765Z,48.13
2022-12-31T08:19:45.263Z,49.27
2022-12-31T08:21:22.298Z,47.73
2022-12-31T08:22:47.479Z,47.56
2022-12-31T08:24:03.162Z,47.13
2022-12-31T08:25:28.325Z,48.50
2022-12-31T08:26:38.413Z,50.13
2022-12-31T08:27:54.659Z,46.75
2022-12-31T08:29:10.541Z,44.38
2022-12-31T08:30:23.710Z,44.50
2022-12-31T08:31:33.467Z,49.06
2022-12-31T08:32:52.275Z,46.93
2022-12-31T08:34:30.996Z,47.38
2022-12-31T08:36:03.511Z,50.81
2022-12-31T08:37:13.264Z,47.62
2022-12-31T08:38:39.668Z,48.87
2022-12-31T08:39:52.175Z,47.50
2022-12-31T08:41:08.055Z,47.62
2022-12-31T08:42:26.792Z,48.40
2022-12-31T08:43:49.954Z,48.13
2022-12-31T08:44:56.991Z,47.06
2022-12-31T08:46:01.793Z,48.87
2022-12-31T08:47:21.071Z,46.40
2022-12-31T08:48:42.867Z,49.13
2022-12-31T08:49:47.057Z,50.56
2022-12-31T08:50:51.270Z,48.81
2022-12-31T08:51:55.601Z,50.13
2022-12-31T08:53:00.170Z,46.56
2022-12-31T08:54:04.438Z,48.20
2022-12-31T08:55:10.285Z,50.06
2022-12-31T08:56:17.353Z,50.80
2022-12-31T08:57:33.479Z,49.56
2022-12-31T08:58:43.242Z,47.62
2022-12-31T08:59:50.391Z,48.81
2022-12-31T09:00:57.898Z,50.60
2022-12-31T09:02:30.441Z,48.47
2022-12-31T09:03:46.409Z,46.60
2022-12-31T09:05:28.208Z,46.31
2022-12-31T09:06:46.278Z,49.87
2022-12-31T09:08:09.670Z,46.13
2022-12-31T09:09:16.866Z,45.80
2022-12-31T09:10:40.137Z,45.81
2022-12-31T09:11:47.025Z,49.31
2022-12-31T09:13:14.963Z,46.44
2022-12-31T09:14:27.703Z,47.75
2022-12-31T09:15:50.083Z,48.40
2022-12-31T09:17:25.492Z,48.40
2022-12-31T09:18:33.290Z,45.33
2022-12-31T09:19:36.845Z,43.50
2022-12-31T09:20:43.359Z,41.88
2022-12-31T09:21:47.405Z,45.63
2022-12-31T09:22:52.787Z,45.75
2022-12-31T09:23:56.996Z,47.47
2022-12-31T09:25:01.114Z,44.93
2022-12-31T09:26:08.159Z,47.80
2022-12-31T09:27:15.242Z,47.73
2022-12-31T09:28:22.167Z,42.06
2022-12-31T09:29:41.257Z,43.00
2022-12-31T09:31:00.081Z,45.69
2022-12-31T09:32:26.164Z,42.94
2022-12-31T09:33:38.907Z,42.53
2022-12-31T09:34:48.473Z,41.56
2022-12-31T09:36:01.180Z,42.94
2022-12-31T09:37:08.214Z,40.31
2022-12-31T09:38:20.802Z,40.60
2022-12-31T09:39:41.539Z,43.93
2022-12-31T09:41:04.953Z,42.19
2022-12-31T09:42:44.944Z,43.81
2022-12-31T09:43:58.985Z,44.25
2022-12-31T09:45:24.282Z,46.75
2022-12-31T09:46:46.435Z,46.19
2022-12-31T09:48:11.318Z,47.33
2022-12-31T09:49:45.094Z,44.44
2022-12-31T09:51:09.957Z,46.07
2022-12-31T09:52:17.167Z,46.19
2022-12-31T09:53:27.086Z,46.75
2022-12-31T09:54:48.918Z,45.19
2022-12-31T09:56:07.831Z,44.63
2022-12-31T09:57:20.667Z,45.12
2022-12-31T09:58:45.892Z,46.87
2022-12-31T10:00:11.075Z,46.00
2022-12-31T10:01:27.286Z,43.38
2022-12-31T10:02:58.906Z,48.07
2022-12-31T10:04:23.395Z,43.63
2022-12-31T10:05:30.624Z,39.47
2022-12-31T10:06:43.525Z,45.50
2022-12-31T10:09:41.391Z,44.63
2022-12-31T10:10:48.431Z,43.13
2022-12-31T10:12:05.282Z,40.25
2022-12-31T10:13:18.288Z,45.69
2022-12-31T10:14:56.777Z,46.40
2022-12-31T10:16:21.858Z,44.31
2022-12-31T10:17:28.971Z,47.31
2022-12-31T10:19:09.073Z,46.53
2022-12-31T10:20:49.583Z,46.56
2022-12-31T10:22:11.389Z,48.19
2022-12-31T10:23:34.910Z,48.69
2022-12-31T10:24:47.838Z,45.38
2022-12-31T10:26:03.487Z,46.25
2022-12-31T10:27:43.469Z,46.00
2022-12-31T10:28:50.457Z,45.75
2022-12-31T10:30:18.738Z,46.07
2022-12-31T10:31:37.660Z,47.69
2022-12-31T10:33:04.168Z,45.80
2022-12-31T10:34:29.369Z,45.75
2022-12-31T10:35:42.355Z,45.81
2022-12-31T10:37:10.449Z,48.63
2022-12-31T10:38:29.511Z,44.44
2022-12-31T10:39:48.370Z,49.00
2022-12-31T10:40:59.410Z,47.81
2022-12-31T10:42:34.586Z,49.00
2022-12-31T10:44:16.419Z,47.27
2022-12-31T10:45:55.350Z,47.69
2022-12-31T10:47:29.640Z,51.69
2022-12-31T10:48:39.708Z,50.69
2022-12-31T10:50:09.137Z,50.00
2022-12-31T10:51:31.279Z,50.69
2022-12-31T10:52:44.374Z,51.94
2022-12-31T10:54:15.505Z,48.25
2022-12-31T10:55:39.046Z,51.69
2022-12-31T10:57:01.224Z,50.88
2022-12-31T10:58:41.339Z,45.40
2022-12-31T10:59:51.203Z,49.56
2022-12-31T11:01:10.162Z,50.81
2022-12-31T11:02:32.407Z,49.88
2022-12-31T11:04:01.274Z,50.19
2022-12-31T11:05:27.716Z,48.06
2022-12-31T11:06:37.572Z,49.25
2022-12-31T11:08:12.973Z,45.60
2022-12-31T11:09:52.564Z,46.56
2022-12-31T11:11:21.562Z,48.56
2022-12-31T11:12:56.889Z,47.60
2022-12-31T11:14:31.516Z,48.73
2022-12-31T11:15:50.429Z,47.67
2022-12-31T11:17:12.255Z,48.94
2022-12-31T11:18:22.025Z,44.63
2022-12-31T11:19:54.428Z,47.33
2022-12-31T11:21:10.168Z,47.75
2022-12-31T11:22:39.665Z,45.25
2022-12-31T11:23:49.394Z,43.31
2022-12-31T11:25:15.439Z,45.31
2022-12-31T11:26:47.670Z,43.73
2022-12-31T11:28:14.539Z,42.31
2022-12-31T11:30:06.552Z,45.81
2022-12-31T11:31:18.905Z,46.00
2022-12-31T11:32:40.804Z,42.44
2022-12-31T11:33:55.412Z,43.94
2022-12-31T11:35:02.377Z,40.31
2022-12-31T11:36:12.086Z,42.25
2022-12-31T11:37:37.050Z,41.75
2022-12-31T11:38:51.845Z,44.81
2022-12-31T11:40:16.881Z,44.33
2022-12-31T11:41:41.874Z,40.38
2022-12-31T11:43:00.621Z,41.13
2022-12-31T11:44:32.994Z,42.69
2022-12-31T11:46:12.032Z,44.19
2022-12-31T11:50:23.996Z,41.69
2022-12-31T11:51:34.020Z,41.63
2022-12-31T11:52:46.954Z,41.56
2022-12-31T11:54:16.475Z,42.00
2022-12-31T11:55:32.534Z,36.13
2022-12-31T11:58:50.610Z,36.63
2022-12-31T11:59:59.128Z,38.00
2022-12-31T12:01:14.834Z,19.62
2022-12-31T12:02:35.659Z,40.33
2022-12-31T12:03:42.759Z,45.75
2022-12-31T12:04:51.571Z,41.93
2022-12-31T12:05:58.092Z,41.63
2022-12-31T12:07:14.821Z,40.31
2022-12-31T12:08:40.608Z,37.40
2022-12-31T12:09:47.841Z,40.63
2022-12-31T12:10:57.325Z,40.67
2022-12-31T12:12:04.692Z,41.88
2022-12-31T12:13:11.869Z,41.94
2022-12-31T12:14:43.117Z,41.37
2022-12-31T12:15:57.981Z,42.38
2022-12-31T12:17:05.971Z,44.38
2022-12-31T12:18:13.350Z,44.07
2022-12-31T12:19:21.237Z,43.60
2022-12-31T12:20:43.212Z,43.19
2022-12-31T12:21:52.214Z,40.69
2022-12-31T12:22:58.533Z,37.75
2022-12-31T12:24:08.254Z,41.20
2022-12-31T12:25:18.207Z,43.63
2022-12-31T12:26:38.691Z,43.63
2022-12-31T12:27:46.554Z,43.75
2022-12-31T12:28:50.620Z,41.60
2022-12-31T12:29:54.745Z,42.25
2022-12-31T12:31:04.605Z,42.06
2022-12-31T12:32:20.489Z,42.53
2022-12-31T12:33:24.975Z,34.87
2022-12-31T12:34:38.064Z,42.47
2022-12-31T12:35:45.113Z,37.19
2022-12-31T12:36:49.293Z,42.06
2022-12-31T12:38:05.445Z,42.06
2022-12-31T12:39:12.979Z,41.37
2022-12-31T12:40:24.067Z,40.60
2022-12-31T12:41:31.941Z,43.47
2022-12-31T12:42:48.973Z,42.88
2022-12-31T12:43:45.333Z,42.80
2022-12-31T12:44:49.462Z,42.33
2022-12-31T12:45:55.749Z,39.56
2022-12-31T12:47:06.436Z,38.44
2022-12-31T12:48:16.323Z,39.31
2022-12-31T12:49:39.069Z,41.13
2022-12-31T12:50:46.552Z,38.60
2022-12-31T12:52:04.414Z,40.75
2022-12-31T12:53:11.617Z,38.38
2022-12-31T12:54:30.574Z,40.69
2022-12-31T12:55:48.871Z,40.19
2022-12-31T12:57:06.915Z,38.25
2022-12-31T12:58:29.288Z,44.38
2022-12-31T13:00:08.058Z,42.13
2022-12-31T13:01:33.294Z,43.00
2022-12-31T13:02:52.180Z,44.00
2022-12-31T13:04:33.566Z,43.44
2022-12-31T13:05:27.931Z,37.94
2022-12-31T13:06:52.747Z,46.31
2022-12-31T13:08:32.778Z,42.69
2022-12-31T13:09:48.458Z,47.53
2022-12-31T13:11:13.753Z,45.40
2022-12-31T13:13:13.852Z,42.00
2022-12-31T13:13:50.074Z,44.94
2022-12-31T13:14:57.193Z,46.00
2022-12-31T13:16:22.128Z,44.33
2022-12-31T13:18:06.302Z,45.40
2022-12-31T13:19:31.816Z,44.00
2022-12-31T13:21:02.489Z,46.25
2022-12-31T13:22:18.542Z,47.19
2022-12-31T13:23:25.768Z,49.94
2022-12-31T13:24:37.338Z,44.07
2022-12-31T13:25:59.801Z,47.94
2022-12-31T13:27:24.931Z,45.56
2022-12-31T13:28:33.418Z,45.47
2022-12-31T13:29:43.004Z,44.56
2022-12-31T13:30:50.099Z,49.53
2022-12-31T13:31:57.469Z,50.67
2022-12-31T13:33:22.689Z,52.40
2022-12-31T13:34:35.868Z,49.25
2022-12-31T13:35:58.405Z,49.33
2022-12-31T13:37:05.483Z,49.88
2022-12-31T13:38:17.127Z,44.93
2022-12-31T13:39:26.755Z,47.60
2022-12-31T13:40:54.412Z,45.93
2022-12-31T13:42:09.718Z,43.47
2022-12-31T13:43:32.985Z,43.67
2022-12-31T13:44:41.688Z,43.53
2022-12-31T13:45:48.091Z,42.80
2022-12-31T13:46:55.394Z,44.44
2022-12-31T13:48:05.482Z,43.80
2022-12-31T13:49:18.095Z,41.00
2022-12-31T13:50:34.079Z,44.87
2022-12-31T13:51:46.986Z,45.06
2022-12-31T13:53:03.200Z,46.13
2022-12-31T13:54:26.648Z,44.73
2022-12-31T13:55:39.631Z,46.19
2022-12-31T13:56:48.255Z,45.73
2022-12-31T13:58:04.069Z,45.73
2022-12-31T13:59:28.713Z,45.31
2022-12-31T14:00:35.724Z,47.25
2022-12-31T14:01:54.272Z,46.00
2022-12-31T14:03:28.496Z,44.13
2022-12-31T14:04:51.828Z,48.69
2022-12-31T14:06:18.439Z,48.53
2022-12-31T14:07:40.505Z,48.63
2022-12-31T14:08:45.565Z,47.81
2022-12-31T14:09:51.240Z,50.00
2022-12-31T14:11:01.161Z,50.00
2022-12-31T14:12:10.876Z,49.00
2022-12-31T14:13:37.252Z,45.81
2022-12-31T14:14:59.306Z,48.63
2022-12-31T14:16:15.032Z,47.69
2022-12-31T14:19:16.815Z,41.94
2022-12-31T14:20:43.639Z,42.38
2022-12-31T14:21:56.659Z,42.53
2022-12-31T14:23:21.747Z,42.06
2022-12-31T14:24:33.085Z,42.60
2022-12-31T14:25:46.207Z,47.06
2022-12-31T14:26:59.050Z,44.25
2022-12-31T14:28:07.123Z,42.69
2022-12-31T14:29:17.192Z,44.50
2022-12-31T14:30:28.432Z,40.81
2022-12-31T14:31:50.240Z,42.56
2022-12-31T14:33:13.763Z,42.13
2022-12-31T14:34:30.067Z,44.06
2022-12-31T14:36:01.817Z,47.13
2022-12-31T14:37:17.512Z,43.67
2022-12-31T14:38:54.722Z,45.13
2022-12-31T14:40:26.934Z,46.88
2022-12-31T14:41:51.810Z,46.19
2022-12-31T14:43:27.115Z,46.19
2022-12-31T14:44:39.481Z,47.60
2022-12-31T14:46:12.240Z,50.07
2022-12-31T14:47:29.206Z,49.00
2022-12-31T14:48:52.694Z,48.67
2022-12-31T14:50:04.066Z,49.27
2022-12-31T14:51:09.536Z,48.80
2022-12-31T14:52:26.705Z,49.40
2022-12-31T14:53:36.786Z,48.25
2022-12-31T14:54:41.363Z,47.73
2022-12-31T14:55:47.144Z,48.87
2022-12-31T14:56:53.578Z,47.93
2022-12-31T14:58:27.244Z,49.31
2022-12-31T14:59:23.790Z,47.56
2022-12-31T15:00:40.334Z,48.67
2022-12-31T15:01:48.819Z,48.00
2022-12-31T15:03:01.821Z,49.06
2022-12-31T15:04:10.615Z,48.06
2022-12-31T15:05:17.708Z,50.56
2022-12-31T15:06:39.654Z,49.38
2022-12-31T15:07:58.742Z,47.38
2022-12-31T15:09:37.653Z,49.69
2022-12-31T15:10:44.785Z,50.33
2022-12-31T15:12:09.703Z,45.07
2022-12-31T15:13:39.549Z,47.13
2022-12-31T15:15:03.285Z,49.56
2022-12-31T15:16:43.671Z,49.13
2022-12-31T15:18:15.100Z,50.47
2022-12-31T15:19:30.848Z,49.63
2022-12-31T15:20:40.818Z,50.12
2022-12-31T15:21:53.851Z,50.00
2022-12-31T15:22:58.060Z,50.25
2022-12-31T15:24:02.739Z,47.62
2022-12-31T15:25:35.376Z,50.80
2022-12-31T15:26:38.214Z,50.50
2022-12-31T15:27:51.888Z,48.56
2022-12-31T15:29:02.524Z,50.88
2022-12-31T15:30:07.903Z,52.53
2022-12-31T15:31:18.655Z,51.47
2022-12-31T15:32:27.092Z,50.25
2022-12-31T15:33:41.426Z,51.13
2022-12-31T15:34:47.970Z,50.44
2022-12-31T15:35:54.763Z,50.56
2022-12-31T15:37:01.565Z,52.38
2022-12-31T15:38:17.415Z,51.37
2022-12-31T15:39:34.912Z,53.07
2022-12-31T15:40:47.800Z,50.67
2022-12-31T15:42:35.675Z,49.00
2022-12-31T15:43:26.019Z,52.69
2022-12-31T15:44:51.204Z,48.69
2022-12-31T15:45:58.105Z,49.47
2022-12-31T15:47:11.188Z,49.94
2022-12-31T15:48:20.890Z,49.06
2022-12-31T15:49:26.351Z,50.38
2022-12-31T15:50:36.569Z,47.07
2022-12-31T15:52:02.832Z,47.20
2022-12-31T15:53:07.777Z,46.93
2022-12-31T15:54:23.288Z,46.94
2022-12-31T15:55:42.276Z,45.67
2022-12-31T15:56:46.577Z,46.40
2022-12-31T15:57:52.932Z,48.87
2022-12-31T15:58:59.530Z,41.94
2022-12-31T16:00:06.633Z,48.38
2022-12-31T16:01:14.098Z,47.50
2022-12-31T16:02:23.599Z,44.94
2022-12-31T16:03:29.717Z,45.87
2022-12-31T16:04:35.458Z,45.87
2022-12-31T16:05:39.741Z,47.56
2022-12-31T16:06:50.619Z,43.38
2022-12-31T16:07:57.375Z,45.60
2022-12-31T16:09:01.619Z,45.38
2022-12-31T16:10:07.041Z,44.25
2022-12-31T16:11:17.903Z,45.63
2022-12-31T16:12:33.232Z,44.94
2022-12-31T16:13:39.571Z,48.00
2022-12-31T16:14:46.696Z,49.07
2022-12-31T16:15:53.543Z,45.38
2022-12-31T16:17:00.412Z,45.81
2022-12-31T16:18:09.159Z,46.25
2022-12-31T16:19:27.258Z,46.63
2022-12-31T16:20:33.030Z,46.53
2022-12-31T16:21:41.558Z,43.67
2022-12-31T16:22:46.002Z,44.56
2022-12-31T16:23:55.407Z,44.67
2022-12-31T16:26:08.327Z,42.69
2022-12-31T16:27:18.591Z,43.67
2022-12-31T16:28:28.454Z,45.31
2022-12-31T16:29:35.981Z,44.40
2022-12-31T16:30:56.937Z,43.63
2022-12-31T16:32:02.950Z,44.13
2022-12-31T16:33:11.381Z,43.27
2022-12-31T16:34:18.635Z,44.13
2022-12-31T16:35:46.328Z,47.19
2022-12-31T16:37:04.593Z,42.88
2022-12-31T16:38:15.644Z,43.63
2022-12-31T16:39:58.487Z,43.38
2022-12-31T16:41:05.204Z,43.44
2022-12-31T16:42:21.291Z,42.38
2022-12-31T16:43:39.568Z,42.13
2022-12-31T16:44:43.748Z,44.44
2022-12-31T16:45:49.122Z,44.27
2022-12-31T16:46:56.056Z,41.63
2022-12-31T16:48:03.139Z,45.00
2022-12-31T16:49:16.440Z,40.94
2022-12-31T16:50:24.393Z,43.00
2022-12-31T16:51:33.632Z,42.94
2022-12-31T16:52:43.617Z,42.69
2022-12-31T16:53:49.070Z,38.94
2022-12-31T16:54:54.677Z,43.13
2022-12-31T16:56:04.833Z,42.50
2022-12-31T16:57:11.911Z,43.81
2022-12-31T16:58:29.107Z,42.88
2022-12-31T16:59:36.479Z,39.88
2022-12-31T17:00:41.378Z,42.27
2022-12-31T17:01:46.808Z,43.94
2022-12-31T17:03:05.825Z,41.88
2022-12-31T17:04:15.005Z,44.00
2022-12-31T17:05:26.054Z,45.50
2022-12-31T17:06:32.358Z,43.07
2022-12-31T17:07:43.643Z,43.87
2022-12-31T17:08:56.713Z,43.50
2022-12-31T17:10:21.427Z,46.00
2022-12-31T17:11:28.472Z,45.56
2022-12-31T17:13:16.954Z,46.31
2022-12-31T17:13:46.467Z,44.13
2022-12-31T17:14:57.245Z,44.50
2022-12-31T17:16:05.896Z,44.13
2022-12-31T17:17:11.611Z,43.19
2022-12-31T17:18:22.543Z,42.69
2022-12-31T17:19:44.421Z,43.56
2022-12-31T17:20:51.304Z,42.75
2022-12-31T17:21:55.648Z,40.38
2022-12-31T17:23:02.744Z,43.47
2022-12-31T17:24:09.015Z,42.62
2022-12-31T17:25:35.852Z,43.60
2022-12-31T17:26:43.381Z,44.56
2022-12-31T17:28:01.597Z,44.87
2022-12-31T17:29:05.948Z,45.12
2022-12-31T17:30:29.525Z,47.07
2022-12-31T17:31:41.168Z,44.00
2022-12-31T17:32:50.608Z,43.75
2022-12-31T17:33:57.401Z,45.00
2022-12-31T17:35:07.390Z,44.69
2022-12-31T17:36:23.501Z,43.06
2022-12-31T17:37:30.421Z,42.19
2022-12-31T17:38:38.443Z,44.50
2022-12-31T17:39:48.280Z,45.12
2022-12-31T17:40:56.632Z,42.47
2022-12-31T17:42:02.331Z,43.40
2022-12-31T17:43:07.983Z,45.81
2022-12-31T17:44:18.051Z,44.87
2022-12-31T17:45:25.556Z,44.06
2022-12-31T17:46:31.730Z,44.00
2022-12-31T17:47:41.647Z,44.88
2022-12-31T17:48:47.932Z,44.19
2022-12-31T17:49:53.819Z,44.53
2022-12-31T17:51:00.480Z,43.33
2022-12-31T17:52:23.567Z,44.31
2022-12-31T17:53:28.238Z,42.27
2022-12-31T17:54:32.565Z,42.25
2022-12-31T17:55:36.979Z,45.88
2022-12-31T17:56:45.290Z,42.33
2022-12-31T17:57:56.526Z,42.06
2022-12-31T17:59:06.529Z,42.87
2022-12-31T18:00:21.902Z,46.19
2022-12-31T18:02:37.489Z,45.50
2022-12-31T18:03:03.057Z,44.80
2022-12-31T18:04:16.817Z,44.80
2022-12-31T18:05:24.014Z,41.44
2022-12-31T18:06:28.251Z,44.67
2022-12-31T18:07:34.082Z,46.47
2022-12-31T18:08:38.608Z,43.00
2022-12-31T18:09:42.699Z,43.69
2022-12-31T18:10:46.879Z,44.80
2022-12-31T18:12:01.646Z,42.81
2022-12-31T18:13:14.456Z,43.56
2022-12-31T18:14:18.556Z,45.44
2022-12-31T18:15:25.094Z,37.87
2022-12-31T18:16:29.806Z,42.80
2022-12-31T18:17:35.647Z,43.07
2022-12-31T18:18:39.691Z,46.53
2022-12-31T18:20:04.064Z,45.12
2022-12-31T18:20:54.415Z,44.60
2022-12-31T18:22:03.010Z,43.00
2022-12-31T18:23:08.555Z,39.06
2022-12-31T18:24:17.270Z,43.20
2022-12-31T18:25:24.448Z,43.13
2022-12-31T18:26:31.403Z,46.27
2022-12-31T18:27:35.460Z,43.75
2022-12-31T18:28:39.657Z,42.00
2022-12-31T18:29:46.360Z,43.47
2022-12-31T18:30:51.147Z,45.33
2022-12-31T18:31:55.714Z,43.69
2022-12-31T18:33:01.237Z,45.12
2022-12-31T18:34:13.202Z,44.69
2022-12-31T18:36:29.732Z,42.94
2022-12-31T18:37:35.811Z,42.73
2022-12-31T18:38:40.968Z,47.19
2022-12-31T18:39:45.604Z,44.50
2022-12-31T18:40:58.536Z,44.19
2022-12-31T18:43:04.900Z,43.63
2022-12-31T18:43:29.572Z,44.67
2022-12-31T18:44:33.767Z,43.67
2022-12-31T18:45:41.402Z,41.13
2022-12-31T18:46:48.221Z,42.60
2022-12-31T18:47:53.440Z,41.87
2022-12-31T18:49:56.367Z,40.07
2022-12-31T18:50:19.282Z,42.00
2022-12-31T18:51:31.515Z,39.06
2022-12-31T18:52:30.549Z,40.47
2022-12-31T18:53:37.460Z,40.94
2022-12-31T18:54:41.459Z,41.44
2022-12-31T18:55:48.999Z,42.13
2022-12-31T18:56:57.049Z,39.69
2022-12-31T18:57:58.990Z,40.94
2022-12-31T18:59:03.488Z,42.88
2022-12-31T19:00:14.673Z,41.87
2022-12-31T19:01:37.299Z,41.69
2022-12-31T19:02:41.547Z,42.50
2022-12-31T19:03:45.595Z,43.31
2022-12-31T19:04:49.616Z,41.00
2022-12-31T19:05:55.121Z,42.07
2022-12-31T19:06:59.333Z,41.31
2022-12-31T19:08:03.497Z,37.81
2022-12-31T19:09:23.691Z,39.69
2022-12-31T19:10:16.878Z,42.25
2022-12-31T19:11:21.907Z,40.67
2022-12-31T19:12:26.087Z,38.73
2022-12-31T19:13:30.185Z,38.88
2022-12-31T19:14:36.988Z,38.13
2022-12-31T19:15:49.245Z,39.00
2022-12-31T19:16:54.389Z,37.81
2022-12-31T19:17:58.784Z,41.13
2022-12-31T19:19:08.447Z,42.38
2022-12-31T19:20:08.916Z,40.75
2022-12-31T19:21:19.219Z,41.73
2022-12-31T19:22:23.266Z,38.31
2022-12-31T19:23:27.404Z,37.53
2022-12-31T19:24:34.538Z,40.94
2022-12-31T19:25:41.630Z,41.00
2022-12-31T19:26:45.923Z,40.47
2022-12-31T19:27:50.894Z,38.67
2022-12-31T19:28:55.055Z,40.75
2022-12-31T19:30:00.720Z,39.47
2022-12-31T19:31:04.871Z,41.00
2022-12-31T19:32:11.696Z,43.33
2022-12-31T19:33:16.828Z,40.19
2022-12-31T19:34:21.097Z,42.40
2022-12-31T19:35:25.581Z,41.31
2022-12-31T19:36:29.654Z,38.80
2022-12-31T19:37:37.992Z,41.37
2022-12-31T19:38:44.204Z,41.44
2022-12-31T19:39:48.239Z,42.00
2022-12-31T19:40:56.528Z,41.25
2022-12-31T19:41:59.936Z,39.81
2022-12-31T19:43:04.340Z,34.75
2022-12-31T19:44:11.471Z,40.87
2022-12-31T19:45:18.302Z,37.81
2022-12-31T19:46:22.947Z,40.67
2022-12-31T19:47:29.876Z,40.13
2022-12-31T19:48:35.433Z,41.44
2022-12-31T19:49:39.662Z,41.56
2022-12-31T19:50:46.853Z,40.31
2022-12-31T19:51:50.997Z,40.47
2022-12-31T19:52:58.083Z,40.81
2022-12-31T19:54:02.186Z,39.13
2022-12-31T19:55:06.853Z,39.88
2022-12-31T19:56:16.974Z,39.40
2022-12-31T19:57:21.040Z,41.60
2022-12-31T19:58:27.225Z,41.73
2022-12-31T19:59:31.207Z,39.33
2022-12-31T20:00:35.411Z,41.67
2022-12-31T20:01:41.106Z,40.25
2022-12-31T20:02:51.143Z,39.81
2022-12-31T20:03:55.518Z,43.47
2022-12-31T20:05:01.180Z,40.00
2022-12-31T20:06:08.214Z,40.50
2022-12-31T20:07:12.327Z,42.31
2022-12-31T20:08:16.447Z,39.75
2022-12-31T20:09:20.564Z,38.56
2022-12-31T20:10:24.762Z,38.67
2022-12-31T20:11:28.939Z,37.00
2022-12-31T20:12:34.084Z,42.00
2022-12-31T20:13:40.696Z,38.38
2022-12-31T20:14:44.806Z,40.87
2022-12-31T20:15:48.848Z,41.00
2022-12-31T20:16:53.023Z,39.19
2022-12-31T20:17:59.643Z,38.00
2022-12-31T20:19:05.360Z,38.73
2022-12-31T20:20:09.983Z,38.33
2022-12-31T20:21:16.902Z,38.00
2022-12-31T20:22:21.161Z,39.75
2022-12-31T20:23:25.132Z,40.00
2022-12-31T20:24:29.165Z,38.56
2022-12-31T20:26:08.871Z,40.07
2022-12-31T20:27:18.225Z,41.47
2022-12-31T20:28:18.739Z,41.53
2022-12-31T20:29:22.816Z,38.00
2022-12-31T20:30:26.923Z,39.87
2022-12-31T20:31:36.069Z,40.80
2022-12-31T20:32:42.573Z,35.50
2022-12-31T20:33:48.174Z,41.06
2022-12-31T20:34:55.544Z,40.47
2022-12-31T20:36:08.495Z,40.25
2022-12-31T20:37:12.522Z,40.56
2022-12-31T20:38:16.791Z,39.19
2022-12-31T20:39:20.763Z,39.13
2022-12-31T20:40:35.117Z,39.40
2022-12-31T20:41:40.769Z,38.31
2022-12-31T20:42:56.210Z,34.00
2022-12-31T20:43:52.551Z,41.00
2022-12-31T20:44:59.449Z,39.63
2022-12-31T20:46:12.658Z,40.69
2022-12-31T20:47:23.143Z,37.13
2022-12-31T20:48:26.993Z,39.50
2022-12-31T20:50:09.174Z,40.00
2022-12-31T20:50:44.595Z,38.13
2022-12-31T20:51:52.348Z,35.67
2022-12-31T20:52:57.386Z,39.19
2022-12-31T20:54:07.136Z,37.87
2022-12-31T20:55:14.005Z,38.69
2022-12-31T20:56:18.622Z,38.13
2022-12-31T20:57:22.665Z,40.06
2022-12-31T20:58:28.260Z,37.44
2022-12-31T20:59:35.361Z,37.13
2022-12-31T21:00:39.782Z,38.06
2022-12-31T21:02:20.171Z,38.00
2022-12-31T21:03:00.615Z,36.87
2022-12-31T21:04:05.805Z,40.56
2022-12-31T21:05:09.943Z,37.13
2022-12-31T21:06:16.548Z,34.44
2022-12-31T21:07:25.145Z,35.87
2022-12-31T21:08:34.603Z,35.13
2022-12-31T21:09:40.628Z,39.44
2022-12-31T21:10:43.675Z,38.94
2022-12-31T21:11:50.267Z,38.31
2022-12-31T21:14:15.481Z,38.00
2022-12-31T21:15:31.071Z,38.67
2022-12-31T21:16:39.089Z,36.47
2022-12-31T21:17:42.809Z,36.38
2022-12-31T21:18:51.260Z,34.75
2022-12-31T21:19:55.343Z,35.13
2022-12-31T21:21:02.440Z,36.94
2022-12-31T21:22:06.550Z,37.33
2022-12-31T21:23:12.137Z,36.19
2022-12-31T21:24:21.770Z,35.47
2022-12-31T21:25:23.669Z,36.81
2022-12-31T21:26:28.573Z,36.56
2022-12-31T21:27:32.719Z,35.07
2022-12-31T21:28:37.044Z,37.38
2022-12-31T21:30:02.061Z,34.60
2022-12-31T21:30:48.576Z,36.94
2022-12-31T21:31:56.568Z,36.69
2022-12-31T21:33:00.823Z,34.19
2022-12-31T21:34:04.956Z,31.87
2022-12-31T21:35:41.095Z,36.75
2022-12-31T21:36:16.243Z,35.88
2022-12-31T21:37:20.283Z,39.13
2022-12-31T21:38:24.367Z,35.75
2022-12-31T21:39:40.594Z,33.88
2022-12-31T21:41:11.228Z,35.44
2022-12-31T21:43:39.555Z,38.50
2022-12-31T21:44:47.318Z,37.56
2022-12-31T21:46:02.961Z,35.40
2022-12-31T21:47:34.336Z,38.87
2022-12-31T21:48:16.064Z,38.40
2022-12-31T21:49:20.202Z,38.67
2022-12-31T21:50:24.280Z,35.38
2022-12-31T21:51:30.391Z,36.20
2022-12-31T21:52:36.205Z,36.94
2022-12-31T21:53:40.428Z,35.93
2022-12-31T21:54:44.508Z,33.19
2022-12-31T21:55:48.922Z,36.94
2022-12-31T21:57:05.616Z,36.73
2022-12-31T21:58:25.351Z,36.94
2022-12-31T21:59:06.311Z,35.75
2022-12-31T22:00:41.024Z,37.93
2022-12-31T22:01:23.305Z,35.25
2022-12-31T22:02:59.725Z,34.94
2022-12-31T22:04:01.725Z,34.19
2022-12-31T22:05:14.985Z,35.60
2022-12-31T22:06:18.035Z,35.63
2022-12-31T22:07:26.751Z,36.44
2022-12-31T22:08:34.629Z,33.69
2022-12-31T22:09:39.906Z,38.44
2022-12-31T22:10:51.951Z,37.88
2022-12-31T22:12:00.580Z,36.88
2022-12-31T22:13:06.338Z,34.25
2022-12-31T22:14:17.741Z,38.50
2022-12-31T22:15:21.998Z,40.31
2022-12-31T22:17:20.177Z,36.94
2022-12-31T22:18:14.969Z,36.94
2022-12-31T22:21:39.398Z,39.13
2022-12-31T22:24:10.951Z,36.13
2022-12-31T22:25:39.534Z,35.63
2022-12-31T22:28:39.529Z,37.63
2022-12-31T22:29:36.522Z,38.06
2022-12-31T22:30:58.199Z,36.50
2022-12-31T22:32:01.424Z,40.00
2022-12-31T22:33:05.765Z,35.88
2022-12-31T22:36:16.500Z,37.27
2022-12-31T22:37:54.832Z,33.63
2022-12-31T22:38:30.613Z,35.81
2022-12-31T22:39:43.693Z,35.88
2022-12-31T22:40:52.745Z,36.69
2022-12-31T22:41:56.969Z,36.13
2022-12-31T22:43:01.144Z,37.60
2022-12-31T22:44:05.371Z,34.94
2022-12-31T22:45:12.169Z,34.47
2022-12-31T22:46:30.937Z,34.69
2022-12-31T22:47:36.668Z,36.20
2022-12-31T22:48:42.921Z,34.19
2022-12-31T22:49:46.997Z,36.06
2022-12-31T22:51:02.191Z,35.38
2022-12-31T22:52:08.959Z,35.00
2022-12-31T22:54:52.809Z,34.56
2022-12-31T22:54:56.367Z,33.50
2022-12-31T22:56:18.526Z,33.81
2022-12-31T22:57:20.304Z,34.60
2022-12-31T23:03:11.310Z,34.69
2022-12-31T23:04:15.401Z,35.13
2022-12-31T23:05:19.496Z,34.06
2022-12-31T23:06:39.264Z,37.25
2022-12-31T23:08:12.836Z,34.80
2022-12-31T23:09:13.613Z,37.31
2022-12-31T23:10:29.450Z,35.06
2022-12-31T23:11:41.597Z,34.13
2022-12-31T23:12:47.370Z,36.63
2022-12-31T23:13:52.242Z,36.13
2022-12-31T23:14:58.404Z,37.06
2022-12-31T23:16:04.382Z,31.50
2022-12-31T23:17:29.932Z,37.94
2022-12-31T23:18:21.631Z,34.60
2022-12-31T23:19:25.408Z,33.44
2022-12-31T23:20:29.502Z,36.38
2022-12-31T23:21:56.054Z,34.25
2022-12-31T23:22:52.579Z,36.38
2022-12-31T23:24:01.357Z,35.50
2022-12-31T23:25:05.888Z,35.31
2022-12-31T23:26:10.379Z,36.75
2022-12-31T23:27:22.739Z,36.60
2022-12-31T23:28:28.482Z,37.13
2022-12-31T23:29:34.173Z,36.31
2022-12-31T23:30:39.919Z,36.80
2022-12-31T23:31:45.709Z,35.13
2022-12-31T23:32:49.799Z,36.44
2022-12-31T23:33:53.891Z,35.27
2022-12-31T23:34:58.195Z,32.00
2022-12-31T23:36:07.663Z,34.13
2022-12-31T23:37:14.877Z,34.13
2022-12-31T23:38:19.661Z,34.63
2022-12-31T23:39:23.800Z,36.38
2022-12-31T23:40:33.091Z,36.20
2022-12-31T23:41:36.959Z,36.69
2022-12-31T23:42:40.960Z,36.69
2022-12-31T23:43:45.450Z,37.75
2022-12-31T23:44:58.629Z,37.06
2022-12-31T23:46:03.035Z,36.88
2022-12-31T23:47:10.536Z,37.06
2022-12-31T23:48:16.032Z,36.19
2022-12-31T23:49:22.430Z,36.44
2022-12-31T23:50:26.889Z,36.56
2022-12-31T23:51:33.841Z,36.00
2022-12-31T23:52:38.142Z,35.56
2022-12-31T23:53:42.359Z,38.19
2022-12-31T23:54:46.620Z,37.19
2022-12-31T23:55:54.910Z,36.44
2022-12-31T23:56:59.205Z,38.63
2022-12-31T23:58:03.527Z,36.44
2022-12-31T23:59:13.181Z,38.25
